Aérodrome :
LOGIN :

S'inscrire | Disclaimer

   EN    FR    IT 

 










Légende :    VFR   VFR Marginal   IFR   IFR Intensif   IFR Très Intensif
Visi : 
Plafond : 
>= 8 km
>= 3000ft
5 à 8 km
1000 à 3000 ft
1500m à 5 km
500 à 1000 ft
800 à 1500m
200 à 500 ft
< 800m
< 200 ft
Symboles :   Orages  Brouillard  Fortes neiges  Fortes précipitations  Vent > 20 kt
SIGMETs :   Divers  Orages  Givrage  Turbulence  Onde Orograph.  Cendres Volcan.






- Altitude de l'aérodrome : 1558 ft
- Code IATA : IOA


LGIO - Ioannina

DERNIER METAR :
  • 031750Z AUTO 30004KT 270V330 //// // ////// 26/16 Q1011 RE//

METARs EXPIRÉS :
  • 031720Z AUTO 30005KT //// // ////// 28/16 Q1011 RE//
  • 031650Z AUTO 32008KT //// // ////// 29/16 Q1011 RE//
  • 031620Z AUTO 33009KT 290V350 //// // ////// 30/16 Q1011 RE//
  • 031550Z AUTO 30007KT 250V350 //// // ////// 31/16 Q1011 RE//
  • 031520Z AUTO 24008KT 220V350 //// // ////// 32/16 Q1011 RE//

TAF TAF LGIO
Valide du 03 à 18h jusqu'au 04 à 03h UTC


031700Z 0318/0403 VRB03KT 9999 FEW025



MET'MAP, la Météo Aéronautique d'un coup d'oeil ! - Copyright ORBIFLY Décembre 2007 - Disclaimer

ORBIFLY MET'MAP TEAM :

Programmation & Développement : Alexandra Zaïnal
Sur une idée originale de : Baudouin d'Aumeries
Assistance à la programmation : Marc-Olivier Méhu
Soutien technique & logistique : Manuel Goepfert

Contact : metmap@orbifly.com




SOURCES & CREDITS :

   NOAA